Rechercher aéroport 
image banner adimage banner adimage banner ad
image banner ad

8CA9 - Kgtv-10 Parking Lot

Situé à San Diego, United States

ICAO - 8CA9, IATA -

Données fournies par Airmate  

Information générale

Coordonnées: N32°43'13" W117°5'51"
Élévation : 200 feet MSL.
Variation magnétique : 13° East
Voir autres Aéroports à California

Données opérationnelles

Special qualification required
Heure actuelle UTC:
Heure actuelle locale:
Météo à : KSAN - San Diego Intl ( 9 km )
METAR: KSAN 020451Z 35006KT 10SM FEW008 22/16 A3004 RMK AO2 SLP171 T02220161 $
TAF: KSAN 020306Z 0203/0306 32009KT P6SM FEW008 FM020400 31005KT P6SM FEW006 TEMPO 0212/0215 3SM BR BKN004 FM021800 30012KT P6SM SKC FM030200 31005KT P6SM SKC
Voir NOTAMs / SUP AIP / TFR affectant cet aéroport [VIEW]
Fréquences de communication: [VIEW]

Pistes:

Coordonnées de l'aéroport

Adresse: San Diego United States

Vue satellite de 8CA9